Flight Track Log - Related Links

Times and Time Zones

All times are in EDT time to prevent confusion due to time zone crossing. See the SKW5399 flight status page for this flight to view local times or setup timezone preferences in your user account.

Time Position Orientation Groundspeed Altitude Reporting Facility
EDT Latitude Longitude Course Direction KTS MPH feet Rate Location/Type
Mon 11:56:47 PM 33.9456 -118.4442 287° West 136 157 1,400  Level Los Angeles Center
Mon 11:57:49 PM 33.9528 -118.5025 279° West 175 201 2,600 1,317 Climbing Los Angeles Center
Mon 11:58:50 PM 33.9692 -118.5717 286° West 197 227 4,100 1,268 Climbing Los Angeles Center
Mon 11:59:00 PM 34.0154 -118.6936 284° West  Level FlightAware Approximate
Mon 11:59:52 PM 33.9914 -118.6408 291° West 219 252 5,200  Level Los Angeles Center
Tue 12:00:00 AM 34.0375 -118.7935 285° West  Level FlightAware Approximate
Tue 12:00:54 AM 34.0175 -118.7125 294° West 232 267 6,500  Level Los Angeles Center
Tue 12:01:00 AM 34.0662 -118.8906 296° West  Level FlightAware Approximate
Tue 12:01:55 AM 34.0425 -118.7900 291° West 231 266 7,700  Level Los Angeles Center
Tue 12:02:00 AM 34.0967 -118.9870 287° West  Level FlightAware Approximate
Tue 12:02:57 AM 34.0647 -118.8656 290° West 237 273 8,600  Level Los Angeles Center
Tue 12:03:58 AM 34.0914 -118.9422 293° West 247 284 9,000 488 Climbing Los Angeles Center
Tue 12:05:00 AM 34.1208 -119.0228 294° West 262 302 9,600 1,065 Climbing Los Angeles Center
Tue 12:06:02 AM 34.1653 -119.0825 312° West 235 270 11,200 1,268 Climbing Los Angeles Center
Tue 12:07:03 AM 34.2061 -119.1433 309° West 234 269 12,200 878 Climbing Los Angeles Center
Tue 12:08:05 AM 34.2511 -119.2044 312° West 243 280 13,000 634 Climbing Los Angeles Center
Tue 12:09:06 AM 34.2886 -119.2547 312° West 252 290 13,500 488 Climbing Los Angeles Center
Tue 12:10:08 AM 34.3536 -119.3508 309° West 266 306 14,000 244 Climbing Los Angeles Center
Tue 12:11:09 AM 34.4019 -119.4189 311° West 267 307 14,000  Level Los Angeles Center
Tue 12:12:11 AM 34.4511 -119.4864 311° West 267 307 14,000  Level Los Angeles Center
Tue 12:13:13 AM 34.4978 -119.5544 310° West 262 302 14,000  Level Los Angeles Center
Tue 12:14:14 AM 34.5447 -119.6219 310° West 262 302 14,000  Level Los Angeles Center
Tue 12:15:16 AM 34.5925 -119.6897 311° West 264 304 14,000  Level Los Angeles Center
Tue 12:16:17 AM 34.6483 -119.7642 312° West 263 303 14,000 -390 Level Los Angeles Center
Tue 12:17:19 AM 34.6983 -119.8364 310° West 272 313 13,200 -927 Descending Los Angeles Center
Tue 12:18:20 AM 34.7519 -119.9119 311° West 289 333 12,100 -1,073 Descending Los Angeles Center
Tue 12:19:22 AM 34.8067 -119.9911 310° West 301 346 11,000 -1,113 Descending Los Angeles Center
Tue 12:20:24 AM 34.8606 -120.0689 310° West 303 349 9,800 -1,467 Descending Los Angeles Center
Tue 12:21:37 AM 34.9311 -120.1744 309° West 298 343 7,700 -1,534 Descending Los Angeles Center
Tue 12:22:37 AM 34.9831 -120.2444 312° West 290 334 6,400 -1,240 Descending Los Angeles Center
Tue 12:23:38 AM 35.0339 -120.3200 309° West 281 323 5,200 -730 Descending Los Angeles Center
Tue 12:24:32 AM 35.0769 -120.3797 311° West 258 297 5,000 -678 Descending Los Angeles Center
Tue 12:25:33 AM 35.1156 -120.4383 309° West 221 254 3,900 -984 Descending Los Angeles Center
Tue 12:26:34 AM 35.1483 -120.4908 307° West 203 234 3,000 -744 Descending Los Angeles Center
Tue 12:27:34 AM 35.1775 -120.5367 308° West 162 186 2,400 -595 Descending Los Angeles Center
Tue 12:28:35 AM 35.1986 -120.5747 304° West 143 165 1,800 5,156 Descending Los Angeles Center
Tue 12:29:49 AM 35.2208 -120.6139 305° West 142 163 14,000 9,892 Climbing Los Angeles Center

Login

Don't have an account? Register now (free) for customized features, flight alerts, and more!